createdAt,value
2022-07-29T00:02:19.585Z,17.98
2022-07-29T00:04:57.688Z,17.32
2022-07-29T00:07:27.881Z,14.93
2022-07-29T00:09:58.743Z,15.72
2022-07-29T00:12:29.961Z,13.90
2022-07-29T00:15:01.401Z,14.80
2022-07-29T00:17:32.341Z,16.55
2022-07-29T00:20:10.033Z,14.20
2022-07-29T00:22:42.301Z,14.25
2022-07-29T00:25:13.688Z,13.88
2022-07-29T00:27:44.607Z,14.73
2022-07-29T00:30:15.640Z,13.40
2022-07-29T00:32:46.675Z,14.73
2022-07-29T00:35:21.096Z,14.93
2022-07-29T00:37:52.240Z,15.75
2022-07-29T00:40:24.614Z,18.67
2022-07-29T00:42:56.340Z,12.93
2022-07-29T00:45:27.516Z,15.48
2022-07-29T00:48:01.936Z,14.40
2022-07-29T00:50:32.984Z,16.55
2022-07-29T00:53:07.020Z,15.08
2022-07-29T00:55:42.553Z,14.53
2022-07-29T00:58:15.540Z,16.20
2022-07-29T01:00:53.311Z,18.80
2022-07-29T01:03:24.520Z,13.93
2022-07-29T01:05:56.331Z,15.90
2022-07-29T01:08:27.676Z,16.42
2022-07-29T01:10:58.718Z,16.97
2022-07-29T01:13:29.829Z,15.13
2022-07-29T01:16:03.101Z,16.00
2022-07-29T01:18:36.757Z,14.83
2022-07-29T01:21:13.753Z,13.93
2022-07-29T01:23:45.225Z,17.48
2022-07-29T01:26:20.270Z,15.25
2022-07-29T01:28:51.318Z,14.25
2022-07-29T01:31:26.713Z,16.90
2022-07-29T01:34:00.737Z,12.65
2022-07-29T01:36:36.477Z,15.40
2022-07-29T01:39:12.942Z,13.43
2022-07-29T01:41:48.537Z,12.93
2022-07-29T01:44:21.171Z,11.40
2022-07-29T01:46:54.514Z,12.90
2022-07-29T01:49:28.014Z,13.03
2022-07-29T01:52:01.360Z,12.95
2022-07-29T01:54:34.727Z,12.43
2022-07-29T01:57:07.648Z,10.30
2022-07-29T01:59:40.716Z,11.60
2022-07-29T02:02:14.644Z,11.48
2022-07-29T02:04:49.098Z,10.60
2022-07-29T02:07:22.549Z,10.90
2022-07-29T02:09:55.497Z,11.35
2022-07-29T02:12:27.816Z,10.53
2022-07-29T02:15:00.804Z,9.93
2022-07-29T02:17:38.868Z,12.43
2022-07-29T02:20:10.960Z,12.65
2022-07-29T02:22:44.679Z,9.85
2022-07-29T02:25:22.791Z,9.68
2022-07-29T02:27:57.303Z,9.70
2022-07-29T02:30:29.095Z,10.18
2022-07-29T02:33:01.351Z,14.20
2022-07-29T02:35:48.877Z,10.18
2022-07-29T02:38:22.979Z,12.28
2022-07-29T02:40:56.596Z,12.13
2022-07-29T02:43:29.175Z,11.05
2022-07-29T02:46:01.443Z,11.73
2022-07-29T02:48:34.920Z,11.20
2022-07-29T02:51:08.212Z,11.22
2022-07-29T02:53:41.919Z,9.35
2022-07-29T02:56:15.193Z,9.78
2022-07-29T02:58:48.590Z,10.15
2022-07-29T03:01:22.151Z,10.68
2022-07-29T03:03:54.767Z,10.48
2022-07-29T03:06:30.983Z,10.50
2022-07-29T03:09:01.003Z,9.90
2022-07-29T03:11:46.376Z,9.50
2022-07-29T03:14:06.236Z,13.38
2022-07-29T03:16:41.244Z,10.43
2022-07-29T03:19:11.217Z,9.83
2022-07-29T03:21:42.153Z,9.78
2022-07-29T03:24:13.405Z,11.68
2022-07-29T03:26:44.717Z,10.23
2022-07-29T03:29:15.471Z,10.98
2022-07-29T03:31:46.409Z,10.05
2022-07-29T03:34:18.927Z,12.00
2022-07-29T03:36:50.600Z,9.58
2022-07-29T03:39:23.914Z,9.43
2022-07-29T03:41:57.067Z,11.22
2022-07-29T03:44:29.388Z,9.93
2022-07-29T03:47:04.216Z,10.35
2022-07-29T03:49:43.241Z,11.70
2022-07-29T03:52:14.281Z,8.80
2022-07-29T03:54:45.118Z,9.75
2022-07-29T03:57:16.486Z,9.05
2022-07-29T03:59:48.239Z,9.15
2022-07-29T04:02:22.418Z,9.18
2022-07-29T04:04:51.542Z,7.97
2022-07-29T04:07:22.586Z,12.60
2022-07-29T04:09:53.620Z,8.05
2022-07-29T04:12:24.443Z,9.05
2022-07-29T04:14:55.403Z,12.03
2022-07-29T04:17:26.137Z,11.93
2022-07-29T04:19:57.078Z,10.55
2022-07-29T04:22:28.128Z,8.80
2022-07-29T04:25:03.784Z,9.08
2022-07-29T04:27:31.330Z,9.38
2022-07-29T04:30:02.777Z,9.23
2022-07-29T04:32:33.509Z,7.97
2022-07-29T04:35:04.754Z,8.33
2022-07-29T04:37:35.717Z,9.65
2022-07-29T04:40:07.028Z,10.72
2022-07-29T04:42:47.875Z,7.90
2022-07-29T04:45:22.646Z,7.78
2022-07-29T04:47:51.661Z,19.73
2022-07-29T04:50:22.567Z,9.90
2022-07-29T04:52:53.646Z,12.03
2022-07-29T04:55:24.491Z,9.35
2022-07-29T04:57:56.010Z,9.05
2022-07-29T05:00:33.292Z,9.38
2022-07-29T05:02:59.361Z,9.28
2022-07-29T05:05:30.271Z,7.55
2022-07-29T05:08:01.109Z,9.25
2022-07-29T05:10:32.044Z,7.30
2022-07-29T05:13:03.295Z,9.03
2022-07-29T05:15:36.726Z,9.95
2022-07-29T05:18:08.035Z,6.70
2022-07-29T05:20:39.380Z,9.60
2022-07-29T05:23:10.226Z,9.38
2022-07-29T05:25:44.121Z,7.35
2022-07-29T05:28:13.639Z,9.20
2022-07-29T05:30:45.905Z,8.73
2022-07-29T05:33:35.372Z,9.08
2022-07-29T05:35:49.337Z,8.23
2022-07-29T05:38:20.073Z,8.33
2022-07-29T05:40:52.316Z,10.00
2022-07-29T05:43:23.254Z,8.88
2022-07-29T05:45:54.610Z,10.60
2022-07-29T05:48:26.579Z,11.28
2022-07-29T05:50:58.170Z,9.73
2022-07-29T05:53:29.161Z,8.48
2022-07-29T05:56:00.304Z,12.35
2022-07-29T05:58:32.585Z,10.58
2022-07-29T06:01:05.298Z,8.63
2022-07-29T06:03:37.834Z,8.25
2022-07-29T06:06:09.436Z,10.00
2022-07-29T06:08:44.535Z,25.32
2022-07-29T06:11:16.076Z,20.52
2022-07-29T06:13:47.115Z,17.65
2022-07-29T06:16:29.777Z,16.45
2022-07-29T06:18:50.655Z,18.37
2022-07-29T06:21:21.814Z,20.45
2022-07-29T06:23:52.748Z,17.10
2022-07-29T06:26:30.675Z,12.13
2022-07-29T06:28:56.251Z,9.88
2022-07-29T06:31:28.407Z,8.55
2022-07-29T06:33:59.444Z,7.03
2022-07-29T06:36:30.282Z,9.50
2022-07-29T06:39:01.194Z,6.28
2022-07-29T06:41:33.507Z,11.22
2022-07-29T06:44:04.848Z,5.85
2022-07-29T06:46:36.078Z,7.50
2022-07-29T06:49:07.375Z,6.60
2022-07-29T06:51:38.479Z,8.10
2022-07-29T06:54:09.563Z,7.45
2022-07-29T06:56:40.632Z,6.67
2022-07-29T06:59:13.496Z,6.00
2022-07-29T07:01:46.415Z,7.17
2022-07-29T07:04:17.581Z,7.33
2022-07-29T07:06:48.680Z,7.40
2022-07-29T07:09:19.417Z,8.83
2022-07-29T07:11:50.280Z,8.88
2022-07-29T07:14:21.504Z,8.33
2022-07-29T07:16:52.775Z,6.45
2022-07-29T07:19:25.158Z,5.90
2022-07-29T07:21:57.082Z,7.12
2022-07-29T07:24:28.310Z,5.72
2022-07-29T07:26:59.315Z,5.97
2022-07-29T07:29:30.173Z,5.85
2022-07-29T07:32:02.086Z,7.80
2022-07-29T07:34:32.822Z,8.45
2022-07-29T07:37:03.685Z,10.32
2022-07-29T07:39:34.817Z,7.92
2022-07-29T07:42:06.194Z,6.22
2022-07-29T07:44:57.358Z,6.87
2022-07-29T07:47:12.352Z,5.28
2022-07-29T07:49:42.400Z,9.00
2022-07-29T07:52:14.850Z,5.95
2022-07-29T07:54:46.889Z,6.60
2022-07-29T07:57:18.625Z,8.90
2022-07-29T07:59:50.651Z,9.68
2022-07-29T08:02:21.881Z,6.75
2022-07-29T08:04:52.887Z,9.03
2022-07-29T08:07:23.854Z,8.28
2022-07-29T08:09:54.753Z,9.30
2022-07-29T08:12:25.826Z,10.85
2022-07-29T08:14:56.837Z,9.63
2022-07-29T08:17:28.754Z,9.73
2022-07-29T08:19:59.687Z,8.48
2022-07-29T08:22:30.635Z,7.35
2022-07-29T08:25:01.562Z,7.62
2022-07-29T08:27:44.437Z,8.50
2022-07-29T08:30:09.612Z,6.53
2022-07-29T08:32:56.377Z,7.95
2022-07-29T08:35:17.113Z,7.92
2022-07-29T08:37:48.569Z,7.00
2022-07-29T08:40:19.756Z,8.05
2022-07-29T08:42:50.628Z,7.30
2022-07-29T08:45:21.493Z,5.80
2022-07-29T08:47:52.377Z,7.45
2022-07-29T08:50:23.318Z,8.55
2022-07-29T08:52:59.706Z,7.53
2022-07-29T08:55:28.319Z,7.20
2022-07-29T08:57:59.941Z,9.15
2022-07-29T09:00:31.932Z,6.12
2022-07-29T09:03:03.582Z,8.80
2022-07-29T09:05:40.160Z,6.65
2022-07-29T09:08:09.330Z,6.15
2022-07-29T09:10:40.873Z,5.78
2022-07-29T09:13:11.933Z,6.40
2022-07-29T09:15:51.150Z,8.98
2022-07-29T09:18:30.597Z,6.65
2022-07-29T09:20:59.781Z,9.40
2022-07-29T09:23:33.627Z,8.48
2022-07-29T09:26:07.002Z,6.75
2022-07-29T09:28:43.220Z,7.83
2022-07-29T09:31:15.261Z,9.00
2022-07-29T09:33:51.608Z,7.33
2022-07-29T09:38:54.946Z,5.92
2022-07-29T09:41:25.689Z,6.33
2022-07-29T09:43:58.974Z,6.17
2022-07-29T09:46:30.369Z,9.63
2022-07-29T09:49:07.112Z,7.00
2022-07-29T09:51:39.647Z,5.53
2022-07-29T09:54:16.678Z,6.62
2022-07-29T09:56:50.157Z,6.37
2022-07-29T09:59:22.688Z,6.15
2022-07-29T10:01:54.132Z,8.20
2022-07-29T10:04:26.402Z,8.20
2022-07-29T10:07:04.310Z,6.15
2022-07-29T10:09:32.073Z,6.05
2022-07-29T10:12:05.464Z,6.95
2022-07-29T10:14:37.356Z,7.75
2022-07-29T10:17:09.995Z,6.05
2022-07-29T10:19:42.276Z,10.80
2022-07-29T10:22:31.204Z,7.70
2022-07-29T10:24:47.076Z,7.75
2022-07-29T10:27:18.386Z,6.87
2022-07-29T10:29:49.313Z,8.13
2022-07-29T10:32:22.784Z,6.58
2022-07-29T10:34:52.917Z,6.30
2022-07-29T10:37:25.111Z,9.85
2022-07-29T10:39:59.224Z,9.40
2022-07-29T10:45:07.070Z,7.25
2022-07-29T10:47:37.892Z,6.92
2022-07-29T10:50:13.985Z,6.28
2022-07-29T10:52:45.168Z,7.95
2022-07-29T10:55:19.400Z,7.15
2022-07-29T10:57:54.862Z,7.83
2022-07-29T11:00:26.636Z,7.90
2022-07-29T11:03:00.366Z,10.35
2022-07-29T11:05:40.842Z,7.08
2022-07-29T11:08:08.584Z,9.90
2022-07-29T11:10:40.091Z,7.85
2022-07-29T11:13:12.270Z,8.03
2022-07-29T11:15:45.858Z,8.95
2022-07-29T11:18:17.346Z,9.83
2022-07-29T11:20:52.073Z,7.45
2022-07-29T11:23:26.866Z,6.95
2022-07-29T11:26:00.037Z,8.10
2022-07-29T11:28:32.707Z,7.12
2022-07-29T11:31:04.776Z,9.63
2022-07-29T11:33:56.280Z,8.88
2022-07-29T11:36:16.856Z,9.03
2022-07-29T11:38:45.719Z,9.70
2022-07-29T11:41:20.955Z,8.55
2022-07-29T12:32:51.890Z,15.68
2022-07-29T12:38:18.198Z,12.70
2022-07-29T12:43:45.381Z,15.80
2022-07-29T12:46:29.404Z,14.47
2022-07-29T12:49:18.388Z,14.18
2022-07-29T13:08:58.423Z,16.27
2022-07-29T13:23:21.333Z,19.87
2022-07-29T13:54:51.654Z,15.58
2022-07-29T13:57:27.129Z,17.07
2022-07-29T14:09:16.253Z,18.82
2022-07-29T14:32:01.304Z,19.55
2022-07-29T14:43:00.008Z,16.23
2022-07-29T14:45:30.815Z,21.20
2022-07-29T14:48:06.583Z,23.92
2022-07-29T14:50:54.794Z,21.48
2022-07-29T14:53:28.070Z,18.05
2022-07-29T14:56:15.016Z,18.67
2022-07-29T14:58:32.649Z,23.95
2022-07-29T15:01:03.531Z,18.05
2022-07-29T15:03:34.598Z,17.20
2022-07-29T15:06:07.982Z,17.17
2022-07-29T15:08:40.050Z,20.77
2022-07-29T15:11:12.083Z,18.05
2022-07-29T15:13:42.952Z,17.57
2022-07-29T15:16:18.037Z,17.98
2022-07-29T15:18:48.959Z,23.12
2022-07-29T15:21:22.636Z,25.27
2022-07-29T15:23:53.713Z,18.42
2022-07-29T15:26:24.751Z,18.87
2022-07-29T15:28:57.169Z,19.52
2022-07-29T15:31:27.962Z,21.25
2022-07-29T15:34:01.272Z,18.67
2022-07-29T15:39:03.487Z,18.55
2022-07-29T15:41:34.289Z,16.70
2022-07-29T15:44:05.457Z,17.00
2022-07-29T15:46:37.601Z,16.20
2022-07-29T15:49:12.685Z,18.32
2022-07-29T15:51:44.107Z,16.45
2022-07-29T15:54:17.018Z,16.42
2022-07-29T15:56:50.312Z,15.88
2022-07-29T15:59:22.400Z,16.75
2022-07-29T16:01:52.296Z,20.60
2022-07-29T16:04:23.844Z,16.97
2022-07-29T16:06:56.019Z,14.68
2022-07-29T16:09:28.678Z,18.35
2022-07-29T16:12:00.945Z,21.97
2022-07-29T16:14:31.759Z,17.40
2022-07-29T16:17:04.137Z,17.23
2022-07-29T16:19:35.291Z,16.23
2022-07-29T16:22:07.858Z,19.40
2022-07-29T16:24:39.501Z,18.15
2022-07-29T16:27:11.722Z,20.70
2022-07-29T16:29:42.796Z,21.50
2022-07-29T16:32:13.576Z,19.92
2022-07-29T16:34:54.690Z,16.60
2022-07-29T16:37:28.850Z,22.58
2022-07-29T16:40:04.405Z,20.15
2022-07-29T16:42:50.712Z,20.20
2022-07-29T16:45:08.659Z,24.92
2022-07-29T16:47:43.353Z,21.05
2022-07-29T16:50:14.371Z,19.45
2022-07-29T16:52:45.356Z,15.80
2022-07-29T16:55:17.739Z,16.12
2022-07-29T16:57:48.996Z,17.48
2022-07-29T17:00:23.441Z,18.27
2022-07-29T17:02:54.544Z,17.85
2022-07-29T17:05:25.673Z,19.12
2022-07-29T17:07:57.470Z,16.30
2022-07-29T17:10:30.970Z,17.32
2022-07-29T17:13:01.900Z,16.87
2022-07-29T17:15:32.754Z,20.68
2022-07-29T17:18:12.280Z,20.57
2022-07-29T17:20:42.404Z,19.98
2022-07-29T17:23:13.233Z,21.45
2022-07-29T17:25:43.982Z,19.55
2022-07-29T17:28:17.034Z,22.02
2022-07-29T17:30:47.264Z,21.62
2022-07-29T17:33:18.205Z,20.57
2022-07-29T17:35:53.134Z,22.90
2022-07-29T17:38:26.760Z,19.37
2022-07-29T17:41:03.317Z,19.40
2022-07-29T17:43:37.840Z,25.48
2022-07-29T17:46:15.846Z,21.35
2022-07-29T17:48:48.452Z,16.55
2022-07-29T17:51:22.326Z,17.85
2022-07-29T17:53:53.629Z,16.97
2022-07-29T17:56:28.177Z,19.02
2022-07-29T17:59:01.181Z,20.08
2022-07-29T18:01:34.940Z,17.92
2022-07-29T18:04:08.698Z,15.93
2022-07-29T18:06:39.748Z,17.50
2022-07-29T18:09:13.644Z,20.85
2022-07-29T18:11:45.761Z,17.70
2022-07-29T18:14:18.300Z,16.23
2022-07-29T18:16:49.227Z,14.70
2022-07-29T18:19:20.371Z,18.85
2022-07-29T18:21:54.662Z,16.50
2022-07-29T18:24:23.393Z,17.30
2022-07-29T18:26:54.045Z,14.73
2022-07-29T18:29:24.925Z,14.05
2022-07-29T18:31:55.551Z,14.23
2022-07-29T18:34:26.489Z,15.48
2022-07-29T18:36:57.727Z,15.23
2022-07-29T18:39:28.904Z,18.80
2022-07-29T18:42:00.059Z,12.78
2022-07-29T18:44:31.142Z,10.68
2022-07-29T18:47:04.095Z,13.35
2022-07-29T18:49:36.365Z,12.47
2022-07-29T18:52:08.412Z,11.35
2022-07-29T18:54:39.275Z,12.73
2022-07-29T18:57:55.049Z,11.88
2022-07-29T18:59:45.300Z,12.43
2022-07-29T19:02:17.622Z,11.60
2022-07-29T19:04:49.876Z,10.60
2022-07-29T19:07:22.984Z,13.35
2022-07-29T19:09:54.515Z,10.10
2022-07-29T19:12:25.547Z,11.85
2022-07-29T19:14:56.793Z,10.38
2022-07-29T19:17:27.835Z,13.30
2022-07-29T19:19:58.775Z,13.80
2022-07-29T19:22:29.617Z,10.28
2022-07-29T19:25:00.552Z,9.63
2022-07-29T19:27:31.404Z,13.38
2022-07-29T19:30:02.136Z,11.55
2022-07-29T19:32:32.868Z,12.37
2022-07-29T19:35:05.260Z,11.00
2022-07-29T19:37:36.190Z,11.73
2022-07-29T19:40:08.049Z,8.68
2022-07-29T19:42:38.891Z,13.70
2022-07-29T19:45:10.524Z,14.05
2022-07-29T19:47:41.583Z,12.05
2022-07-29T19:50:12.922Z,11.75
2022-07-29T19:52:43.964Z,13.50
2022-07-29T19:55:15.621Z,11.85
2022-07-29T19:57:47.433Z,10.30
2022-07-29T20:00:20.992Z,10.38
2022-07-29T20:02:52.976Z,10.20
2022-07-29T20:05:28.178Z,10.08
2022-07-29T20:07:56.096Z,11.88
2022-07-29T20:10:26.935Z,10.60
2022-07-29T20:12:58.226Z,13.53
2022-07-29T20:15:29.060Z,13.38
2022-07-29T20:17:59.916Z,10.93
2022-07-29T20:20:31.364Z,13.43
2022-07-29T20:23:03.684Z,10.43
2022-07-29T20:25:34.476Z,12.37
2022-07-29T20:28:05.496Z,9.88
2022-07-29T20:30:38.533Z,11.38
2022-07-29T20:33:08.662Z,10.32
2022-07-29T20:35:40.819Z,10.32
2022-07-29T20:38:15.015Z,9.48
2022-07-29T20:40:44.190Z,11.35
2022-07-29T20:43:15.228Z,11.83
2022-07-29T20:45:46.578Z,9.03
2022-07-29T20:48:17.721Z,8.18
2022-07-29T20:50:50.101Z,9.48
2022-07-29T20:53:21.603Z,9.23
2022-07-29T20:55:52.622Z,9.38
2022-07-29T20:58:23.520Z,8.55
2022-07-29T21:00:54.855Z,10.35
2022-07-29T21:03:26.167Z,10.70
2022-07-29T21:05:57.679Z,11.53
2022-07-29T21:08:29.491Z,10.93
2022-07-29T21:11:00.270Z,10.32
2022-07-29T21:13:31.311Z,12.15
2022-07-29T21:16:06.331Z,10.68
2022-07-29T21:18:36.271Z,9.40
2022-07-29T21:21:08.332Z,9.38
2022-07-29T21:23:39.472Z,10.88
2022-07-29T21:26:12.978Z,10.32
2022-07-29T21:28:42.587Z,10.98
2022-07-29T21:31:16.131Z,12.47
2022-07-29T21:33:48.902Z,10.18
2022-07-29T21:36:47.234Z,12.53
2022-07-29T21:38:51.779Z,9.13
2022-07-29T21:41:23.624Z,8.18
2022-07-29T21:43:58.331Z,11.60
2022-07-29T21:46:28.161Z,9.80
2022-07-29T21:48:59.324Z,15.78
2022-07-29T21:51:31.577Z,10.55
2022-07-29T21:54:02.620Z,12.15
2022-07-29T21:56:34.213Z,10.43
2022-07-29T21:59:09.723Z,11.68
2022-07-29T22:01:39.230Z,11.43
2022-07-29T22:04:10.693Z,12.30
2022-07-29T22:06:42.355Z,12.47
2022-07-29T22:09:13.168Z,12.10
2022-07-29T22:11:44.110Z,11.10
2022-07-29T22:14:16.331Z,14.15
2022-07-29T22:16:48.536Z,11.90
2022-07-29T22:19:19.526Z,12.35
2022-07-29T22:21:50.503Z,11.53
2022-07-29T22:24:23.115Z,14.30
2022-07-29T22:26:53.859Z,13.45
2022-07-29T22:29:24.785Z,13.93
2022-07-29T22:31:55.718Z,14.40
2022-07-29T22:34:26.553Z,11.90
2022-07-29T22:36:59.150Z,18.82
2022-07-29T22:39:30.289Z,12.28
2022-07-29T22:42:01.318Z,11.83
2022-07-29T22:44:32.152Z,12.35
2022-07-29T22:47:03.640Z,14.45
2022-07-29T22:49:34.755Z,17.12
2022-07-29T22:52:06.448Z,12.50
2022-07-29T22:54:38.743Z,12.93
2022-07-29T22:57:09.514Z,15.68
2022-07-29T22:59:40.262Z,16.75
2022-07-29T23:02:10.986Z,14.05
2022-07-29T23:04:41.810Z,14.80
2022-07-29T23:07:13.035Z,13.35
2022-07-29T23:09:43.924Z,12.53
2022-07-29T23:12:14.827Z,16.23
2022-07-29T23:14:45.576Z,12.60
2022-07-29T23:17:16.437Z,15.65
2022-07-29T23:19:47.326Z,13.25
2022-07-29T23:22:19.772Z,18.55
2022-07-29T23:24:50.456Z,14.50
2022-07-29T23:27:21.395Z,14.00
2022-07-29T23:29:52.152Z,14.05
2022-07-29T23:32:22.966Z,15.80
2022-07-29T23:34:53.765Z,17.75
2022-07-29T23:37:24.844Z,14.98
2022-07-29T23:39:57.115Z,15.85
2022-07-29T23:42:28.045Z,13.80
2022-07-29T23:44:58.834Z,13.32
2022-07-29T23:47:30.231Z,14.98
2022-07-29T23:50:01.281Z,15.95
2022-07-29T23:52:32.007Z,20.50
2022-07-29T23:55:36.352Z,15.63
2022-07-29T23:57:35.553Z,15.83
